Time;durP1;ratioP1;P1;durP2;ratioP2;P2;SDS_P1;SDS_P2;PMS_P1;PMS_P2;Temp;Humidity;BMP_temperature;BMP_pressure;BME280_temperature;BME280_humidity;BME280_pressure;Samples;Min_cycle;Max_cycle;Signal;HPM_P1;HPM_P2
2022/02/20 00:00:30;;;;;;;4.03;1.50;;;7.80;85.70;;;;;;5050760;28;20472;-60
2022/02/20 00:02:55;;;;;;;3.55;1.58;;;7.90;86.00;;;;;;5043438;28;20087;-61
2022/02/20 00:05:21;;;;;;;3.25;1.88;;;7.90;86.10;;;;;;5030830;28;20401;-61
2022/02/20 00:07:46;;;;;;;4.88;2.00;;;7.80;86.50;;;;;;5032468;28;20104;-60
2022/02/20 00:10:12;;;;;;;7.97;2.70;;;7.80;86.80;;;;;;5030977;28;20094;-61
2022/02/20 00:12:37;;;;;;;4.32;1.63;;;7.80;87.20;;;;;;5013574;28;20017;-61
2022/02/20 00:15:04;;;;;;;5.22;1.35;;;7.80;87.40;;;;;;5030998;28;20168;-60
2022/02/20 00:17:29;;;;;;;5.05;2.00;;;7.80;87.70;;;;;;5048368;28;20028;-61
2022/02/20 00:19:55;;;;;;;6.45;1.63;;;7.70;87.90;;;;;;5032095;28;20052;-61
2022/02/20 00:22:20;;;;;;;6.45;2.00;;;7.70;88.20;;;;;;5032832;28;20112;-61
2022/02/20 00:24:46;;;;;;;6.00;1.90;;;7.60;88.30;;;;;;5013204;28;20408;-61
2022/02/20 00:27:11;;;;;;;3.90;1.90;;;7.70;88.70;;;;;;5032460;28;20018;-61
2022/02/20 00:29:37;;;;;;;4.85;1.75;;;7.60;88.80;;;;;;5043454;28;20025;-62
2022/02/20 00:32:04;;;;;;;6.47;1.92;;;7.60;89.00;;;;;;5035371;28;20049;-62
2022/02/20 00:34:29;;;;;;;5.85;1.83;;;7.60;89.50;;;;;;5031127;28;20572;-61
2022/02/20 00:36:54;;;;;;;5.03;1.63;;;7.60;89.60;;;;;;5042780;28;20115;-61
2022/02/20 00:39:20;;;;;;;6.95;2.00;;;7.60;89.80;;;;;;5041035;28;20090;-61
2022/02/20 00:41:45;;;;;;;3.45;1.50;;;7.50;90.00;;;;;;5050793;28;20036;-61
2022/02/20 00:44:11;;;;;;;5.25;1.60;;;7.60;90.00;;;;;;5038435;28;20109;-61
2022/02/20 00:46:36;;;;;;;4.53;2.00;;;7.60;90.00;;;;;;5037316;28;20025;-61
2022/02/20 00:49:02;;;;;;;6.78;1.92;;;7.60;90.10;;;;;;5039650;28;20045;-61
2022/02/20 00:51:28;;;;;;;5.68;1.80;;;7.60;90.20;;;;;;5033009;28;20033;-62
2022/02/20 00:53:53;;;;;;;6.57;1.55;;;7.50;90.30;;;;;;5034300;28;20449;-62
2022/02/20 00:56:19;;;;;;;6.10;2.00;;;7.60;90.50;;;;;;5030981;28;20035;-61
2022/02/20 00:58:44;;;;;;;3.92;1.67;;;7.50;90.60;;;;;;5045903;28;20029;-61
2022/02/20 01:01:10;;;;;;;5.28;1.55;;;7.60;90.80;;;;;;5053413;28;20166;-61
2022/02/20 01:03:35;;;;;;;6.72;2.00;;;7.50;91.00;;;;;;5052328;28;20028;-61
2022/02/20 01:06:01;;;;;;;3.17;1.55;;;7.50;91.10;;;;;;5053956;28;20029;-61
2022/02/20 01:08:27;;;;;;;4.57;1.88;;;7.50;91.30;;;;;;5035712;28;20029;-61
2022/02/20 01:10:52;;;;;;;3.80;1.70;;;7.40;91.40;;;;;;5047608;28;20112;-61
2022/02/20 01:13:18;;;;;;;6.18;1.80;;;7.40;91.50;;;;;;5051246;28;20029;-61
2022/02/20 01:15:43;;;;;;;5.63;1.98;;;7.40;91.70;;;;;;5045463;28;20032;-61
2022/02/20 01:18:09;;;;;;;4.18;1.70;;;7.30;91.80;;;;;;5046162;28;20017;-61
2022/02/20 01:20:35;;;;;;;3.97;1.85;;;7.30;91.90;;;;;;5046214;28;20563;-61
2022/02/20 01:23:00;;;;;;;3.10;1.40;;;7.30;92.00;;;;;;5043968;28;20048;-61
2022/02/20 01:25:26;;;;;;;6.68;2.10;;;7.30;92.10;;;;;;5033636;28;20060;-61
2022/02/20 01:27:51;;;;;;;5.25;1.65;;;7.20;92.20;;;;;;5033459;28;20041;-62
2022/02/20 01:30:17;;;;;;;6.32;1.95;;;7.20;92.40;;;;;;5033528;28;20021;-61
2022/02/20 01:32:42;;;;;;;6.32;2.00;;;7.20;92.50;;;;;;5037123;28;20028;-60
2022/02/20 01:35:08;;;;;;;6.10;1.90;;;7.10;92.60;;;;;;5049621;28;20036;-61
2022/02/20 01:37:34;;;;;;;5.30;2.67;;;7.10;92.80;;;;;;5052342;28;20476;-61
2022/02/20 01:40:00;;;;;;;9.15;3.38;;;7.10;92.90;;;;;;5053390;28;20051;-60
2022/02/20 01:42:25;;;;;;;5.90;2.00;;;7.00;93.20;;;;;;5050004;28;20116;-60
2022/02/20 01:44:51;;;;;;;5.47;1.90;;;7.00;93.20;;;;;;5053368;28;20036;-60
2022/02/20 01:47:16;;;;;;;7.05;2.05;;;7.00;93.30;;;;;;5050533;28;20045;-60
2022/02/20 01:49:43;;;;;;;7.75;2.05;;;7.00;93.40;;;;;;5036843;28;20025;-61
2022/02/20 01:52:09;;;;;;;3.70;1.67;;;6.90;93.40;;;;;;5032963;28;20072;-61
2022/02/20 01:54:34;;;;;;;6.93;1.92;;;6.90;93.50;;;;;;5053243;28;20052;-61
2022/02/20 01:57:00;;;;;;;6.22;2.35;;;6.90;93.60;;;;;;5037441;28;20025;-61
2022/02/20 01:59:26;;;;;;;6.18;2.28;;;6.90;93.70;;;;;;5033898;28;20082;-61
2022/02/20 02:01:54;;;;;;;7.38;2.65;;;6.80;93.80;;;;;;5045997;28;20399;-61
2022/02/20 02:04:19;;;;;;;4.00;2.28;;;6.80;94.00;;;;;;5044044;28;20048;-60
2022/02/20 02:06:46;;;;;;;5.25;2.53;;;6.70;94.10;;;;;;5053011;28;20476;-60
2022/02/20 02:09:12;;;;;;;7.70;2.90;;;6.70;94.20;;;;;;5042953;28;20029;-60
2022/02/20 02:11:39;;;;;;;9.27;2.83;;;6.60;94.30;;;;;;5032140;28;20037;-61
2022/02/20 02:14:04;;;;;;;5.20;2.22;;;6.60;94.40;;;;;;5049204;28;20037;-61
2022/02/20 02:16:30;;;;;;;4.78;2.13;;;6.60;94.40;;;;;;5035369;28;20032;-61
2022/02/20 02:18:56;;;;;;;4.35;2.20;;;6.60;94.50;;;;;;5046325;28;20433;-60
2022/02/20 02:21:21;;;;;;;4.35;2.20;;;6.50;94.50;;;;;;5034745;28;20104;-61
2022/02/20 02:23:47;;;;;;;2.92;1.85;;;6.50;94.70;;;;;;5033677;28;20036;-61
2022/02/20 02:26:13;;;;;;;4.85;2.33;;;6.60;94.80;;;;;;5051029;28;20079;-60
2022/02/20 02:28:38;;;;;;;7.82;2.28;;;6.50;94.80;;;;;;5038970;28;20032;-60
2022/02/20 02:31:05;;;;;;;4.22;2.00;;;6.40;94.90;;;;;;5048683;28;20104;-60
2022/02/20 02:33:33;;;;;;;5.30;2.03;;;6.40;95.10;;;;;;5047173;28;20087;-60
2022/02/20 02:36:01;;;;;;;5.82;2.53;;;6.40;95.10;;;;;;5037167;28;20408;-61
2022/02/20 02:38:27;;;;;;;3.47;2.15;;;6.40;95.10;;;;;;5034373;28;20033;-61
2022/02/20 02:40:55;;;;;;;4.55;2.13;;;6.40;95.30;;;;;;5041036;28;20094;-60
2022/02/20 02:43:20;;;;;;;3.30;1.75;;;6.30;95.40;;;;;;5049216;28;20079;-60
2022/02/20 02:45:46;;;;;;;2.55;1.67;;;6.30;95.60;;;;;;5032633;28;20033;-60
2022/02/20 02:48:11;;;;;;;3.45;1.60;;;6.30;95.50;;;;;;5037473;28;20499;-60
2022/02/20 02:50:37;;;;;;;4.40;2.38;;;6.30;95.40;;;;;;5051946;28;20036;-60
2022/02/20 02:53:02;;;;;;;4.25;2.10;;;6.30;95.60;;;;;;5040133;28;20535;-60
2022/02/20 02:55:28;;;;;;;4.57;1.98;;;6.30;95.70;;;;;;5049195;28;20029;-60
2022/02/20 02:57:53;;;;;;;4.90;2.28;;;6.30;95.70;;;;;;5043478;28;20026;-60
2022/02/20 03:00:19;;;;;;;4.43;1.88;;;6.30;95.90;;;;;;5049849;28;20036;-60
2022/02/20 03:02:44;;;;;;;3.72;2.05;;;6.30;95.90;;;;;;5055004;28;20094;-60
2022/02/20 03:05:10;;;;;;;4.15;2.10;;;6.30;96.00;;;;;;5047982;28;20029;-60
2022/02/20 03:07:35;;;;;;;3.30;1.92;;;6.30;96.00;;;;;;5056282;28;20031;-61
2022/02/20 03:10:01;;;;;;;5.43;2.00;;;6.30;96.10;;;;;;5053745;28;20029;-60
2022/02/20 03:12:26;;;;;;;5.78;2.00;;;6.30;96.10;;;;;;5048322;28;20033;-60
2022/02/20 03:14:52;;;;;;;3.47;2.00;;;6.20;96.20;;;;;;5044724;28;20370;-60
2022/02/20 03:17:17;;;;;;;3.25;1.80;;;6.30;96.20;;;;;;5033331;28;20034;-59
2022/02/20 03:19:43;;;;;;;7.68;1.92;;;6.20;96.20;;;;;;5044648;28;20036;-60
2022/02/20 03:22:08;;;;;;;3.60;1.85;;;6.20;96.30;;;;;;5034450;28;20139;-60
2022/02/20 03:24:34;;;;;;;4.47;1.65;;;6.20;96.30;;;;;;5044432;28;20021;-60
2022/02/20 03:26:59;;;;;;;3.20;2.10;;;6.20;96.40;;;;;;5031319;28;20025;-60
2022/02/20 03:29:24;;;;;;;3.70;2.03;;;6.20;96.50;;;;;;5032552;28;20132;-60
2022/02/20 03:31:50;;;;;;;4.88;1.83;;;6.20;96.50;;;;;;5031482;28;20033;-60
2022/02/20 03:34:15;;;;;;;4.78;2.10;;;6.20;96.60;;;;;;5040541;28;20075;-60
2022/02/20 03:36:41;;;;;;;3.55;1.90;;;6.30;96.60;;;;;;5051501;28;20040;-60
2022/02/20 03:39:06;;;;;;;4.43;2.20;;;6.20;96.60;;;;;;5042615;28;20025;-60
2022/02/20 03:41:32;;;;;;;3.25;2.17;;;6.30;96.70;;;;;;5031356;28;20045;-60
2022/02/20 03:43:58;;;;;;;2.42;1.67;;;6.30;96.60;;;;;;5036449;28;20029;-60
2022/02/20 03:46:23;;;;;;;3.47;2.13;;;6.30;96.60;;;;;;5050973;28;20029;-61
2022/02/20 03:48:48;;;;;;;3.28;1.85;;;6.30;96.60;;;;;;5042407;28;20025;-60
2022/02/20 03:51:14;;;;;;;4.28;2.00;;;6.30;96.70;;;;;;5039103;28;20041;-61
2022/02/20 03:53:42;;;;;;;3.53;1.90;;;6.40;96.70;;;;;;5047961;28;20082;-61
2022/02/20 03:56:07;;;;;;;4.13;2.17;;;6.40;96.80;;;;;;5050821;28;20033;-60
2022/02/20 03:58:33;;;;;;;3.70;2.33;;;6.40;96.80;;;;;;5032259;28;20032;-60
2022/02/20 04:00:58;;;;;;;4.35;2.70;;;6.40;96.80;;;;;;5031226;28;20072;-59
2022/02/20 04:03:24;;;;;;;4.95;2.10;;;6.50;96.80;;;;;;5032458;28;20028;-61
2022/02/20 04:05:50;;;;;;;4.03;1.88;;;6.50;96.80;;;;;;5033296;28;20028;-60
2022/02/20 04:08:16;;;;;;;2.45;1.52;;;6.50;96.70;;;;;;5034584;28;20500;-60
2022/02/20 04:10:41;;;;;;;3.50;1.90;;;6.60;96.70;;;;;;5037631;28;20124;-61
2022/02/20 04:13:07;;;;;;;4.25;1.67;;;6.60;96.70;;;;;;5030617;28;20505;-60
2022/02/20 04:15:32;;;;;;;3.80;1.75;;;6.60;96.70;;;;;;5048889;28;20044;-60
2022/02/20 04:17:58;;;;;;;2.88;1.83;;;6.60;96.70;;;;;;5049826;28;20036;-60
2022/02/20 04:20:23;;;;;;;4.03;2.28;;;6.60;96.70;;;;;;5047727;28;20116;-60
2022/02/20 04:22:49;;;;;;;2.78;1.80;;;6.70;96.70;;;;;;5050799;28;20036;-60
2022/02/20 04:25:15;;;;;;;2.97;1.45;;;6.70;96.70;;;;;;5039644;28;20041;-60
2022/02/20 04:27:43;;;;;;;4.15;1.60;;;6.70;96.80;;;;;;5030716;28;20025;-60
2022/02/20 04:30:09;;;;;;;3.92;1.75;;;6.70;96.80;;;;;;5030669;28;20025;-60
2022/02/20 04:32:35;;;;;;;3.50;1.80;;;6.70;96.80;;;;;;5035321;28;20540;-60
2022/02/20 04:35:03;;;;;;;4.13;1.98;;;6.80;96.80;;;;;;5050503;28;20052;-61
2022/02/20 04:37:28;;;;;;;3.78;1.75;;;6.70;96.80;;;;;;5054324;28;20032;-60
2022/02/20 04:39:54;;;;;;;4.20;1.67;;;6.80;96.90;;;;;;5052836;28;20422;-60
2022/02/20 04:42:19;;;;;;;3.92;1.70;;;6.80;96.90;;;;;;5054265;28;20029;-61
2022/02/20 04:44:45;;;;;;;4.03;2.35;;;6.80;96.80;;;;;;5035532;28;20037;-60
2022/02/20 04:47:11;;;;;;;3.38;1.73;;;6.90;96.90;;;;;;5050591;28;20044;-61
2022/02/20 04:49:36;;;;;;;3.78;1.70;;;6.90;96.90;;;;;;5052970;28;20455;-60
2022/02/20 04:52:03;;;;;;;2.10;1.52;;;6.90;96.90;;;;;;5040464;28;20432;-60
2022/02/20 04:54:29;;;;;;;4.10;1.48;;;6.90;96.90;;;;;;5052275;28;20071;-60
2022/02/20 04:56:55;;;;;;;3.35;1.58;;;6.90;96.90;;;;;;5054156;28;20056;-61
2022/02/20 04:59:20;;;;;;;4.40;1.58;;;6.90;96.90;;;;;;5043939;28;20025;-60
2022/02/20 05:01:46;;;;;;;2.33;2.10;;;6.90;96.90;;;;;;5035241;28;20045;-60
2022/02/20 05:04:12;;;;;;;4.22;1.70;;;6.90;96.90;;;;;;5045009;28;20040;-61
2022/02/20 05:06:37;;;;;;;3.00;1.80;;;7.00;97.00;;;;;;5034301;28;20022;-61
2022/02/20 05:09:03;;;;;;;3.70;1.55;;;6.90;96.90;;;;;;5034331;28;20109;-60
2022/02/20 05:11:28;;;;;;;2.38;1.92;;;6.90;96.90;;;;;;5046939;28;20048;-60
2022/02/20 05:13:55;;;;;;;2.05;1.45;;;6.90;96.90;;;;;;5047482;28;20025;-60
2022/02/20 05:16:25;;;;;;;2.63;1.45;;;6.90;96.90;;;;;;5037533;28;20065;-61
2022/02/20 05:18:51;;;;;;;4.07;1.73;;;7.00;96.90;;;;;;5061117;28;20036;-61
2022/02/20 05:21:17;;;;;;;2.40;1.52;;;6.90;96.90;;;;;;5033374;28;20522;-60
2022/02/20 05:23:43;;;;;;;2.53;1.60;;;6.90;96.90;;;;;;5034812;28;20021;-60
2022/02/20 05:26:09;;;;;;;1.90;1.40;;;6.90;96.90;;;;;;5033858;28;20120;-60
2022/02/20 05:28:34;;;;;;;2.42;1.48;;;6.90;97.00;;;;;;5043804;28;20574;-60
2022/02/20 05:31:00;;;;;;;3.10;1.83;;;6.90;96.90;;;;;;5053626;28;20480;-60
2022/02/20 05:33:25;;;;;;;2.05;1.63;;;6.90;97.00;;;;;;5051600;28;20021;-60
2022/02/20 05:35:51;;;;;;;2.63;1.90;;;6.90;97.00;;;;;;5049908;28;20032;-60
2022/02/20 05:38:17;;;;;;;3.13;1.70;;;6.80;97.00;;;;;;5042809;28;20022;-61
2022/02/20 05:40:43;;;;;;;4.15;2.00;;;6.80;97.10;;;;;;5053629;28;20043;-60
2022/02/20 05:43:09;;;;;;;3.30;2.05;;;6.80;97.20;;;;;;5047018;28;20100;-60
2022/02/20 05:45:34;;;;;;;4.45;1.90;;;6.70;97.20;;;;;;5052602;28;20033;-61
2022/02/20 05:48:00;;;;;;;3.05;2.00;;;6.70;97.20;;;;;;5053158;28;20515;-62
2022/02/20 05:50:25;;;;;;;3.83;2.17;;;6.70;97.20;;;;;;5033795;28;20385;-61
2022/02/20 05:52:51;;;;;;;2.65;1.83;;;6.70;97.30;;;;;;5033160;28;20033;-61
2022/02/20 05:55:16;;;;;;;3.20;2.00;;;6.60;97.40;;;;;;5049778;28;20029;-61
2022/02/20 05:57:47;;;;;;;3.75;2.42;;;6.60;97.60;;;;;;5040390;28;20028;-61
2022/02/20 06:00:16;;;;;;;2.88;2.00;;;6.60;97.60;;;;;;5048616;28;20044;-62
2022/02/20 06:02:42;;;;;;;3.13;2.10;;;6.60;97.60;;;;;;5042076;28;20505;-62
2022/02/20 06:05:08;;;;;;;2.28;2.00;;;6.60;97.60;;;;;;5048032;28;20143;-62
2022/02/20 06:07:34;;;;;;;2.53;1.90;;;6.70;97.60;;;;;;5038783;28;20032;-61
2022/02/20 06:10:01;;;;;;;4.18;2.63;;;6.70;97.60;;;;;;5042111;28;20033;-61
2022/02/20 06:12:27;;;;;;;3.13;2.22;;;6.60;97.70;;;;;;5062479;28;20037;-62
2022/02/20 06:14:52;;;;;;;2.47;2.00;;;6.60;97.70;;;;;;5043409;28;20026;-61
2022/02/20 06:17:18;;;;;;;4.68;2.20;;;6.60;97.70;;;;;;5035912;28;20411;-62
2022/02/20 06:19:43;;;;;;;2.75;2.20;;;6.70;97.70;;;;;;5032920;28;20028;-61
2022/02/20 06:22:09;;;;;;;2.80;2.03;;;6.70;97.70;;;;;;5032372;28;20026;-61
2022/02/20 06:24:35;;;;;;;3.35;2.17;;;6.70;97.60;;;;;;5043673;28;20132;-61
2022/02/20 06:27:00;;;;;;;3.20;2.00;;;6.70;97.60;;;;;;5052860;28;20025;-62
2022/02/20 06:29:26;;;;;;;4.55;2.35;;;6.70;97.70;;;;;;5051615;28;20091;-62
2022/02/20 06:31:51;;;;;;;2.92;2.38;;;6.70;97.60;;;;;;5035201;28;20100;-62
2022/02/20 06:34:17;;;;;;;5.55;2.20;;;6.70;97.60;;;;;;5050022;28;20468;-62
2022/02/20 06:36:43;;;;;;;4.47;2.30;;;6.70;97.50;;;;;;5034139;28;20033;-61
2022/02/20 06:39:10;;;;;;;2.97;2.08;;;6.70;97.50;;;;;;5044464;28;20025;-61
2022/02/20 06:41:36;;;;;;;2.55;2.00;;;6.70;97.50;;;;;;5032488;28;20501;-61
2022/02/20 06:44:01;;;;;;;3.97;2.30;;;6.80;97.50;;;;;;5031743;28;20087;-61
2022/02/20 06:46:27;;;;;;;3.80;2.30;;;6.70;97.50;;;;;;5043157;28;20036;-61
2022/02/20 06:48:52;;;;;;;3.58;2.42;;;6.80;97.50;;;;;;5046427;28;20029;-61
2022/02/20 06:51:18;;;;;;;2.70;2.13;;;6.80;97.50;;;;;;5039514;28;20033;-61
2022/02/20 06:53:43;;;;;;;3.45;2.25;;;6.90;97.50;;;;;;5050332;28;20113;-61
2022/02/20 06:56:08;;;;;;;4.15;2.40;;;6.90;97.50;;;;;;5044334;28;20044;-62
2022/02/20 06:58:34;;;;;;;3.80;2.55;;;7.00;97.60;;;;;;5034507;28;20025;-61
2022/02/20 07:00:59;;;;;;;3.30;2.50;;;6.90;97.40;;;;;;5045249;28;20025;-61
2022/02/20 07:03:25;;;;;;;2.97;2.40;;;7.00;97.50;;;;;;5050131;28;20040;-61
2022/02/20 07:05:50;;;;;;;3.63;2.47;;;7.00;97.40;;;;;;5050535;28;20028;-61
2022/02/20 07:08:16;;;;;;;4.35;2.50;;;7.00;97.40;;;;;;5050425;28;20028;-61
2022/02/20 07:10:41;;;;;;;4.05;2.25;;;7.10;97.40;;;;;;5040723;28;20116;-61
2022/02/20 07:13:07;;;;;;;3.42;2.58;;;7.20;97.40;;;;;;5047940;28;20033;-60
2022/02/20 07:15:32;;;;;;;5.70;2.60;;;7.20;97.40;;;;;;5047608;28;20112;-60
2022/02/20 07:17:58;;;;;;;3.88;2.50;;;7.20;97.30;;;;;;5018240;28;20032;-60
2022/02/20 07:20:23;;;;;;;3.63;2.55;;;7.30;97.20;;;;;;5043944;28;20463;-60
2022/02/20 07:22:49;;;;;;;3.17;2.55;;;7.20;97.10;;;;;;5043647;28;20108;-60
2022/02/20 07:25:14;;;;;;;3.17;2.70;;;7.30;97.10;;;;;;5043782;28;20036;-61
2022/02/20 07:27:42;;;;;;;4.43;2.50;;;7.30;97.30;;;;;;5050674;28;20025;-61
2022/02/20 07:30:09;;;;;;;3.25;2.33;;;7.30;97.00;;;;;;5044103;28;20033;-61
2022/02/20 07:32:35;;;;;;;6.63;2.70;;;7.30;97.00;;;;;;5042168;28;20531;-62
2022/02/20 07:35:01;;;;;;;5.13;2.70;;;7.30;97.00;;;;;;5041171;28;20104;-61
2022/02/20 07:37:29;;;;;;;4.53;2.70;;;7.30;97.00;;;;;;5048883;28;20491;-61
2022/02/20 07:39:56;;;;;;;4.03;2.47;;;7.30;97.00;;;;;;5046813;28;20040;-61
2022/02/20 07:42:21;;;;;;;4.13;2.67;;;7.40;96.90;;;;;;5042535;28;20025;-61
2022/02/20 07:44:47;;;;;;;4.13;2.40;;;7.40;96.90;;;;;;5017673;28;20120;-61
2022/02/20 07:47:12;;;;;;;3.88;2.60;;;7.40;96.80;;;;;;5049068;28;20391;-61
2022/02/20 07:49:38;;;;;;;4.10;2.88;;;7.40;96.80;;;;;;5047544;28;20115;-61
2022/02/20 07:52:04;;;;;;;4.43;2.70;;;7.40;96.80;;;;;;5039099;28;20091;-61
2022/02/20 07:54:29;;;;;;;4.93;2.70;;;7.40;96.70;;;;;;5042453;28;20473;-61
2022/02/20 07:56:55;;;;;;;3.38;2.60;;;7.50;96.70;;;;;;5044735;28;20029;-61
2022/02/20 07:59:20;;;;;;;4.88;3.47;;;7.40;96.70;;;;;;5039459;28;20033;-61
2022/02/20 08:01:48;;;;;;;4.03;2.97;;;7.40;96.60;;;;;;5038044;28;20511;-61
2022/02/20 08:04:14;;;;;;;5.05;3.30;;;7.50;96.70;;;;;;5040460;28;20041;-61
2022/02/20 08:06:40;;;;;;;5.75;3.88;;;7.50;96.60;;;;;;5035370;28;20029;-61
2022/02/20 08:09:05;;;;;;;3.60;2.40;;;7.50;96.60;;;;;;5051667;28;20025;-61
2022/02/20 08:11:32;;;;;;;3.00;2.50;;;7.50;96.60;;;;;;5052089;28;20054;-61
2022/02/20 08:13:58;;;;;;;3.22;2.38;;;7.50;96.60;;;;;;5048077;28;20029;-61
2022/02/20 08:16:24;;;;;;;3.08;2.50;;;7.60;96.50;;;;;;5048667;28;20037;-61
2022/02/20 08:18:50;;;;;;;4.55;2.70;;;7.70;96.50;;;;;;5044294;28;20031;-61
2022/02/20 08:21:15;;;;;;;3.03;2.58;;;7.70;96.40;;;;;;5051548;28;20029;-61
2022/02/20 08:23:41;;;;;;;4.75;3.20;;;7.70;96.30;;;;;;5051036;28;20021;-62
2022/02/20 08:26:08;;;;;;;4.50;3.00;;;7.80;96.20;;;;;;5061829;28;20119;-61
2022/02/20 08:28:33;;;;;;;3.95;3.00;;;7.80;96.10;;;;;;5039827;28;20017;-61
2022/02/20 08:30:59;;;;;;;4.95;3.33;;;7.90;96.10;;;;;;5061704;28;20389;-61
2022/02/20 08:33:27;;;;;;;3.85;2.60;;;7.90;96.10;;;;;;5042079;28;21185;-61
2022/02/20 08:35:52;;;;;;;4.07;2.95;;;7.90;96.00;;;;;;5053728;28;20430;-61
2022/02/20 08:38:21;;;;;;;4.03;2.72;;;8.00;96.00;;;;;;5051943;28;20025;-61
2022/02/20 08:40:49;;;;;;;4.03;2.85;;;8.00;95.80;;;;;;5053186;28;20037;-61
2022/02/20 08:43:15;;;;;;;4.15;2.63;;;8.10;95.80;;;;;;5062539;28;20029;-62
2022/02/20 08:45:41;;;;;;;3.00;2.53;;;8.10;95.60;;;;;;5035234;28;20330;-63
2022/02/20 08:48:06;;;;;;;3.45;2.72;;;8.10;95.60;;;;;;5032671;28;20391;-62
2022/02/20 08:50:32;;;;;;;3.10;2.50;;;8.20;95.50;;;;;;5051800;28;20473;-63
2022/02/20 08:52:57;;;;;;;3.53;2.65;;;8.20;95.40;;;;;;5047718;28;20036;-63
2022/02/20 08:55:23;;;;;;;2.85;2.50;;;8.30;95.30;;;;;;5055972;28;20025;-63
2022/02/20 08:57:49;;;;;;;2.88;2.15;;;8.30;95.10;;;;;;5046640;28;20025;-63
2022/02/20 09:00:15;;;;;;;3.38;2.63;;;8.30;94.90;;;;;;5050327;28;20442;-63
2022/02/20 09:02:42;;;;;;;4.10;2.78;;;8.40;94.90;;;;;;5020503;28;20045;-63
2022/02/20 09:05:08;;;;;;;4.82;2.97;;;8.40;94.80;;;;;;5037085;28;20021;-63
2022/02/20 09:07:33;;;;;;;3.30;2.55;;;8.40;94.70;;;;;;5041769;28;20665;-63
2022/02/20 09:09:59;;;;;;;5.35;3.30;;;8.50;94.70;;;;;;5040621;28;20041;-63
2022/02/20 09:12:25;;;;;;;3.83;2.95;;;8.50;94.80;;;;;;5048982;28;20059;-63
2022/02/20 09:14:50;;;;;;;6.18;3.53;;;8.50;94.70;;;;;;5038598;28;20067;-63
2022/02/20 09:17:16;;;;;;;5.05;3.38;;;8.60;94.60;;;;;;5044279;28;20033;-63
2022/02/20 09:19:41;;;;;;;5.65;3.72;;;8.60;94.50;;;;;;5031627;28;20021;-63
2022/02/20 09:22:07;;;;;;;4.65;3.63;;;8.60;94.50;;;;;;5045658;28;20025;-63
2022/02/20 09:24:33;;;;;;;5.63;3.92;;;8.60;94.50;;;;;;5044135;28;20037;-62
2022/02/20 09:26:58;;;;;;;5.05;3.55;;;8.60;94.40;;;;;;5041387;28;20040;-62
2022/02/20 09:29:24;;;;;;;5.00;3.70;;;8.70;94.40;;;;;;5049511;28;20032;-62
2022/02/20 09:31:49;;;;;;;4.47;3.20;;;8.70;94.30;;;;;;5050311;28;20037;-62
2022/02/20 09:34:15;;;;;;;4.93;3.15;;;8.60;94.20;;;;;;5043362;28;20105;-62
2022/02/20 09:36:40;;;;;;;4.85;3.22;;;8.70;94.20;;;;;;5041954;28;20034;-63
2022/02/20 09:39:06;;;;;;;4.15;3.33;;;8.70;94.10;;;;;;5048632;28;20472;-63
2022/02/20 09:41:32;;;;;;;4.90;3.60;;;8.70;94.00;;;;;;5050975;28;20464;-64
2022/02/20 09:43:59;;;;;;;5.88;3.88;;;8.80;94.00;;;;;;5042048;28;20037;-63
2022/02/20 09:46:28;;;;;;;4.22;3.38;;;8.80;94.00;;;;;;5044653;28;20029;-64
2022/02/20 09:48:55;;;;;;;4.00;3.03;;;8.90;94.00;;;;;;5034720;28;20477;-63
2022/02/20 09:51:20;;;;;;;6.38;3.70;;;8.90;94.00;;;;;;5045820;28;20113;-63
2022/02/20 09:53:46;;;;;;;5.32;3.72;;;8.90;94.00;;;;;;5033013;28;20026;-62
2022/02/20 09:56:13;;;;;;;5.25;3.63;;;8.90;93.90;;;;;;5036058;28;20025;-62
2022/02/20 09:58:39;;;;;;;6.63;3.58;;;9.00;93.90;;;;;;5048848;28;20485;-61
2022/02/20 10:01:14;;;;;;;5.38;4.15;;;9.00;93.90;;;;;;5001194;28;984775;-62
2022/02/20 10:03:47;;;;;;;5.18;3.47;;;9.10;93.80;;;;;;5049974;28;20040;-61
2022/02/20 10:06:25;;;;;;;5.53;4.10;;;9.10;93.70;;;;;;5051893;28;20029;-62
2022/02/20 10:08:54;;;;;;;4.72;3.65;;;9.10;93.60;;;;;;5034062;28;20040;-61
2022/02/20 10:11:28;;;;;;;5.78;3.70;;;9.10;93.60;;;;;;5043868;28;20436;-61
2022/02/20 10:14:03;;;;;;;6.78;4.63;;;9.10;93.50;;;;;;5044016;28;20029;-61
2022/02/20 10:16:31;;;;;;;5.10;3.72;;;9.10;93.50;;;;;;5051505;28;20032;-61
2022/02/20 10:18:58;;;;;;;5.70;3.78;;;9.10;93.50;;;;;;5035321;28;20021;-61
2022/02/20 10:21:26;;;;;;;5.75;4.20;;;9.10;93.50;;;;;;5052160;28;20031;-62
2022/02/20 10:23:53;;;;;;;5.57;3.97;;;9.10;93.50;;;;;;5041945;28;20112;-62
2022/02/20 10:26:23;;;;;;;6.05;4.22;;;9.10;93.60;;;;;;5041695;28;20082;-61
2022/02/20 10:29:00;;;;;;;7.75;4.97;;;9.10;93.60;;;;;;5051084;28;20021;-61
2022/02/20 10:31:44;;;;;;;6.97;4.97;;;9.10;93.60;;;;;;5031213;28;20041;-61
2022/02/20 10:34:24;;;;;;;5.88;4.53;;;9.20;93.60;;;;;;5015055;28;20029;-62
2022/02/20 10:36:58;;;;;;;7.25;4.47;;;9.20;93.60;;;;;;5041063;28;20508;-62
2022/02/20 10:39:31;;;;;;;5.15;4.10;;;9.30;93.60;;;;;;5041460;28;20040;-61
2022/02/20 10:42:09;;;;;;;8.43;3.90;;;9.30;93.70;;;;;;5040733;28;20025;-62
2022/02/20 10:44:48;;;;;;;5.70;3.90;;;9.40;93.70;;;;;;5042973;28;20041;-62
2022/02/20 10:47:14;;;;;;;6.90;4.43;;;9.50;93.60;;;;;;5040303;28;20094;-62
2022/02/20 10:49:40;;;;;;;5.85;3.97;;;9.50;93.60;;;;;;5042300;28;20032;-62
2022/02/20 10:52:22;;;;;;;5.25;3.78;;;9.60;93.60;;;;;;5044489;28;20037;-62
2022/02/20 10:55:02;;;;;;;6.47;4.05;;;9.60;93.50;;;;;;5044733;28;20079;-62
2022/02/20 10:57:35;;;;;;;4.80;3.72;;;9.70;93.50;;;;;;5049101;28;20028;-62
2022/02/20 11:00:18;;;;;;;5.28;3.70;;;9.80;93.50;;;;;;5035561;28;20030;-62
2022/02/20 11:02:44;;;;;;;8.20;4.53;;;9.80;93.50;;;;;;5051283;28;20451;-61
2022/02/20 11:05:12;;;;;;;5.40;4.25;;;9.90;93.40;;;;;;5034142;28;20083;-61
2022/02/20 11:07:38;;;;;;;5.13;3.63;;;9.90;93.30;;;;;;5031817;28;20029;-61
2022/02/20 11:10:09;;;;;;;4.72;3.55;;;9.90;93.30;;;;;;5045903;28;20063;-62
2022/02/20 11:12:38;;;;;;;6.88;3.55;;;10.00;93.30;;;;;;5051472;28;20041;-62
2022/02/20 11:15:06;;;;;;;5.35;3.67;;;10.00;93.30;;;;;;5043172;28;20025;-63
2022/02/20 11:17:33;;;;;;;5.43;3.42;;;10.00;93.20;;;;;;5043063;28;20115;-62
2022/02/20 11:20:00;;;;;;;6.25;3.60;;;10.00;93.10;;;;;;5045167;28;20511;-62
2022/02/20 11:22:31;;;;;;;5.28;3.70;;;10.00;93.10;;;;;;5039622;28;20403;-62
2022/02/20 11:25:02;;;;;;;6.38;3.47;;;10.20;93.30;;;;;;5046195;28;20031;-62
2022/02/20 11:27:28;;;;;;;6.40;4.00;;;10.10;93.40;;;;;;5044881;28;20554;-62
2022/02/20 11:29:54;;;;;;;6.43;3.90;;;10.00;93.40;;;;;;5033478;28;20029;-62
2022/02/20 11:32:20;;;;;;;7.35;4.07;;;10.00;93.50;;;;;;5041780;28;20128;-62
2022/02/20 11:34:47;;;;;;;6.88;3.92;;;10.00;93.50;;;;;;5050347;28;20108;-62
2022/02/20 11:37:14;;;;;;;7.22;3.78;;;10.00;93.50;;;;;;5066109;28;20059;-61
2022/02/20 11:40:00;;;;;;;6.82;4.35;;;10.00;93.60;;;;;;5055957;28;20512;-62
2022/02/20 11:42:26;;;;;;;7.38;4.00;;;10.00;93.70;;;;;;5036070;28;20033;-62
2022/02/20 11:45:07;;;;;;;4.90;3.15;;;9.90;93.70;;;;;;5043681;28;20032;-62
2022/02/20 11:47:35;;;;;;;4.00;3.20;;;9.90;93.90;;;;;;5038518;28;20026;-61
2022/02/20 11:50:20;;;;;;;4.90;3.10;;;9.80;94.00;;;;;;5044775;28;20036;-62
2022/02/20 11:52:53;;;;;;;5.10;3.00;;;9.80;94.20;;;;;;5048994;28;20047;-61
2022/02/20 11:55:24;;;;;;;5.63;3.57;;;9.70;94.30;;;;;;5046791;28;20033;-61
2022/02/20 11:57:50;;;;;;;6.18;2.95;;;9.70;94.50;;;;;;5061842;28;20396;-61
2022/02/20 12:00:22;;;;;;;3.90;2.60;;;9.60;94.60;;;;;;5036585;28;20030;-61
2022/02/20 12:03:03;;;;;;;6.07;2.70;;;9.60;94.70;;;;;;5056551;28;20064;-61
2022/02/20 12:05:29;;;;;;;5.47;3.00;;;9.50;94.70;;;;;;5031349;28;20040;-61
2022/02/20 12:07:55;;;;;;;5.18;2.50;;;9.50;94.60;;;;;;5048829;28;20091;-60
2022/02/20 12:10:21;;;;;;;4.60;2.45;;;9.50;94.60;;;;;;5039560;28;20025;-61
2022/02/20 12:12:48;;;;;;;3.53;2.40;;;9.40;94.60;;;;;;5048156;28;20111;-61
2022/02/20 12:15:40;;;;;;;4.30;2.60;;;9.30;94.60;;;;;;5047412;28;20472;-61
2022/02/20 12:18:12;;;;;;;5.22;2.60;;;9.30;94.70;;;;;;5048386;28;20051;-61
2022/02/20 12:20:49;;;;;;;4.72;2.90;;;9.20;94.70;;;;;;5048339;28;20041;-62
2022/02/20 12:23:46;;;;;;;3.97;2.72;;;9.10;94.90;;;;;;5048961;28;20120;-60
2022/02/20 12:26:47;;;;;;;5.55;2.83;;;9.00;95.00;;;;;;5030664;28;20117;-60
2022/02/20 12:29:16;;;;;;;5.20;3.20;;;8.90;95.20;;;;;;5037564;28;20052;-61
2022/02/20 12:32:10;;;;;;;7.38;3.53;;;9.00;95.40;;;;;;5055517;28;20051;-61
2022/02/20 12:34:47;;;;;;;7.22;3.70;;;8.80;95.40;;;;;;5053823;28;20098;-61
2022/02/20 12:37:15;;;;;;;6.25;3.75;;;8.80;95.60;;;;;;5065857;28;20079;-60
2022/02/20 12:39:40;;;;;;;5.25;3.72;;;8.80;95.70;;;;;;5042193;28;20021;-60
2022/02/20 12:42:06;;;;;;;5.75;3.83;;;8.80;95.70;;;;;;5046614;28;20495;-60
2022/02/20 12:44:32;;;;;;;6.03;3.40;;;8.70;95.70;;;;;;5029234;28;20029;-61
2022/02/20 12:47:01;;;;;;;5.28;3.42;;;8.70;95.70;;;;;;5062929;28;20035;-60
2022/02/20 12:49:29;;;;;;;4.85;3.33;;;8.70;95.80;;;;;;5041659;28;20456;-60
2022/02/20 12:52:05;;;;;;;6.22;4.13;;;8.60;96.00;;;;;;5053349;28;20048;-61
2022/02/20 12:54:31;;;;;;;5.55;3.60;;;8.60;96.20;;;;;;5050842;28;20032;-61
2022/02/20 12:57:04;;;;;;;7.72;3.25;;;8.50;96.20;;;;;;5044451;28;20025;-60